sensor_id;sensor_type;location;lat;lon;timestamp;P1;durP1;ratioP1;P2;durP2;ratioP2
36585;SDS011;22591;48.314;11.562;2022-08-30T00:00:38;13.65;;;12.43;;
36585;SDS011;22591;48.314;11.562;2022-08-30T00:03:23;18.98;;;14.40;;
36585;SDS011;22591;48.314;11.562;2022-08-30T00:05:48;15.10;;;13.73;;
36585;SDS011;22591;48.314;11.562;2022-08-30T00:08:14;14.73;;;13.32;;
36585;SDS011;22591;48.314;11.562;2022-08-30T00:10:40;14.10;;;12.80;;
36585;SDS011;22591;48.314;11.562;2022-08-30T00:13:07;16.15;;;14.15;;
36585;SDS011;22591;48.314;11.562;2022-08-30T00:15:36;16.40;;;14.48;;
36585;SDS011;22591;48.314;11.562;2022-08-30T00:18:03;16.08;;;14.48;;
36585;SDS011;22591;48.314;11.562;2022-08-30T00:20:29;20.77;;;15.77;;
36585;SDS011;22591;48.314;11.562;2022-08-30T00:22:57;16.55;;;15.05;;
36585;SDS011;22591;48.314;11.562;2022-08-30T00:25:24;16.33;;;14.73;;
36585;SDS011;22591;48.314;11.562;2022-08-30T00:27:50;15.00;;;13.77;;
36585;SDS011;22591;48.314;11.562;2022-08-30T00:30:16;15.25;;;13.70;;
36585;SDS011;22591;48.314;11.562;2022-08-30T00:32:43;15.80;;;14.23;;
36585;SDS011;22591;48.314;11.562;2022-08-30T00:35:10;16.55;;;14.40;;
36585;SDS011;22591;48.314;11.562;2022-08-30T00:37:37;17.15;;;15.40;;
36585;SDS011;22591;48.314;11.562;2022-08-30T00:40:03;17.00;;;15.35;;
36585;SDS011;22591;48.314;11.562;2022-08-30T00:42:30;14.95;;;13.57;;
36585;SDS011;22591;48.314;11.562;2022-08-30T00:44:57;16.65;;;14.95;;
36585;SDS011;22591;48.314;11.562;2022-08-30T00:47:23;15.70;;;14.18;;
36585;SDS011;22591;48.314;11.562;2022-08-30T00:49:50;24.17;;;17.15;;
36585;SDS011;22591;48.314;11.562;2022-08-30T00:52:18;18.42;;;16.63;;
36585;SDS011;22591;48.314;11.562;2022-08-30T00:54:46;17.13;;;15.55;;
36585;SDS011;22591;48.314;11.562;2022-08-30T00:57:14;16.35;;;14.48;;
36585;SDS011;22591;48.314;11.562;2022-08-30T00:59:42;15.65;;;13.88;;
36585;SDS011;22591;48.314;11.562;2022-08-30T01:02:10;15.88;;;13.60;;
36585;SDS011;22591;48.314;11.562;2022-08-30T01:04:37;16.15;;;14.50;;
36585;SDS011;22591;48.314;11.562;2022-08-30T01:07:05;14.93;;;13.60;;
36585;SDS011;22591;48.314;11.562;2022-08-30T01:09:32;12.48;;;11.48;;
36585;SDS011;22591;48.314;11.562;2022-08-30T01:11:58;13.40;;;12.00;;
36585;SDS011;22591;48.314;11.562;2022-08-30T01:14:25;12.93;;;11.57;;
36585;SDS011;22591;48.314;11.562;2022-08-30T01:16:51;11.40;;;10.45;;
36585;SDS011;22591;48.314;11.562;2022-08-30T01:21:56;14.55;;;13.00;;
36585;SDS011;22591;48.314;11.562;2022-08-30T01:24:28;13.70;;;12.50;;
36585;SDS011;22591;48.314;11.562;2022-08-30T01:26:54;14.30;;;12.63;;
36585;SDS011;22591;48.314;11.562;2022-08-30T01:29:22;15.05;;;13.68;;
36585;SDS011;22591;48.314;11.562;2022-08-30T01:31:49;16.52;;;14.32;;
36585;SDS011;22591;48.314;11.562;2022-08-30T01:34:15;14.57;;;13.25;;
36585;SDS011;22591;48.314;11.562;2022-08-30T01:36:41;12.02;;;11.00;;
36585;SDS011;22591;48.314;11.562;2022-08-30T01:39:10;13.75;;;12.15;;
36585;SDS011;22591;48.314;11.562;2022-08-30T01:41:38;17.48;;;15.50;;
36585;SDS011;22591;48.314;11.562;2022-08-30T01:44:07;17.85;;;16.05;;
36585;SDS011;22591;48.314;11.562;2022-08-30T01:46:39;18.45;;;16.33;;
36585;SDS011;22591;48.314;11.562;2022-08-30T01:49:09;15.27;;;13.70;;
36585;SDS011;22591;48.314;11.562;2022-08-30T01:51:37;14.60;;;13.25;;
36585;SDS011;22591;48.314;11.562;2022-08-30T01:54:03;18.25;;;16.42;;
36585;SDS011;22591;48.314;11.562;2022-08-30T01:56:29;18.52;;;15.73;;
36585;SDS011;22591;48.314;11.562;2022-08-30T01:58:55;23.15;;;19.10;;
36585;SDS011;22591;48.314;11.562;2022-08-30T02:01:22;16.15;;;14.65;;
36585;SDS011;22591;48.314;11.562;2022-08-30T02:03:50;22.83;;;15.73;;
36585;SDS011;22591;48.314;11.562;2022-08-30T02:06:19;15.48;;;14.18;;
36585;SDS011;22591;48.314;11.562;2022-08-30T02:08:46;19.85;;;16.67;;
36585;SDS011;22591;48.314;11.562;2022-08-30T02:11:13;23.73;;;21.17;;
36585;SDS011;22591;48.314;11.562;2022-08-30T02:13:40;22.25;;;19.80;;
36585;SDS011;22591;48.314;11.562;2022-08-30T02:16:08;23.10;;;20.20;;
36585;SDS011;22591;48.314;11.562;2022-08-30T02:18:35;17.55;;;15.65;;
36585;SDS011;22591;48.314;11.562;2022-08-30T02:21:03;19.85;;;17.42;;
36585;SDS011;22591;48.314;11.562;2022-08-30T02:23:29;16.05;;;14.55;;
36585;SDS011;22591;48.314;11.562;2022-08-30T02:25:55;21.85;;;19.42;;
36585;SDS011;22591;48.314;11.562;2022-08-30T02:28:21;18.23;;;15.57;;
36585;SDS011;22591;48.314;11.562;2022-08-30T02:30:47;20.27;;;17.08;;
36585;SDS011;22591;48.314;11.562;2022-08-30T02:33:13;29.77;;;24.90;;
36585;SDS011;22591;48.314;11.562;2022-08-30T02:35:39;30.23;;;23.60;;
36585;SDS011;22591;48.314;11.562;2022-08-30T02:38:05;26.33;;;22.48;;
36585;SDS011;22591;48.314;11.562;2022-08-30T02:40:31;30.55;;;23.20;;
36585;SDS011;22591;48.314;11.562;2022-08-30T02:42:57;30.45;;;23.33;;
36585;SDS011;22591;48.314;11.562;2022-08-30T02:45:23;34.88;;;25.25;;
36585;SDS011;22591;48.314;11.562;2022-08-30T02:47:49;33.20;;;26.55;;
36585;SDS011;22591;48.314;11.562;2022-08-30T02:50:14;28.52;;;24.80;;
36585;SDS011;22591;48.314;11.562;2022-08-30T02:52:40;26.35;;;22.27;;
36585;SDS011;22591;48.314;11.562;2022-08-30T02:55:06;25.23;;;21.70;;
36585;SDS011;22591;48.314;11.562;2022-08-30T02:57:33;25.80;;;22.38;;
36585;SDS011;22591;48.314;11.562;2022-08-30T02:59:59;26.25;;;22.83;;
36585;SDS011;22591;48.314;11.562;2022-08-30T03:02:25;22.13;;;19.83;;
36585;SDS011;22591;48.314;11.562;2022-08-30T03:04:51;23.15;;;19.70;;
36585;SDS011;22591;48.314;11.562;2022-08-30T03:07:17;19.15;;;17.15;;
36585;SDS011;22591;48.314;11.562;2022-08-30T03:09:42;21.45;;;19.17;;
36585;SDS011;22591;48.314;11.562;2022-08-30T03:12:08;27.63;;;22.20;;
36585;SDS011;22591;48.314;11.562;2022-08-30T03:14:35;27.17;;;24.20;;
36585;SDS011;22591;48.314;11.562;2022-08-30T03:17:01;30.65;;;22.83;;
36585;SDS011;22591;48.314;11.562;2022-08-30T03:19:31;36.10;;;25.25;;
36585;SDS011;22591;48.314;11.562;2022-08-30T03:21:58;31.15;;;26.02;;
36585;SDS011;22591;48.314;11.562;2022-08-30T03:24:24;28.65;;;23.15;;
36585;SDS011;22591;48.314;11.562;2022-08-30T03:26:50;32.50;;;27.08;;
36585;SDS011;22591;48.314;11.562;2022-08-30T03:29:16;29.23;;;22.63;;
36585;SDS011;22591;48.314;11.562;2022-08-30T03:31:42;21.27;;;18.58;;
36585;SDS011;22591;48.314;11.562;2022-08-30T03:34:07;18.50;;;16.70;;
36585;SDS011;22591;48.314;11.562;2022-08-30T03:36:35;15.50;;;14.15;;
36585;SDS011;22591;48.314;11.562;2022-08-30T03:39:04;21.02;;;18.60;;
36585;SDS011;22591;48.314;11.562;2022-08-30T03:41:30;19.70;;;17.70;;
36585;SDS011;22591;48.314;11.562;2022-08-30T03:43:56;20.98;;;18.67;;
36585;SDS011;22591;48.314;11.562;2022-08-30T03:46:23;25.50;;;18.73;;
36585;SDS011;22591;48.314;11.562;2022-08-30T03:48:48;23.75;;;20.95;;
36585;SDS011;22591;48.314;11.562;2022-08-30T03:51:16;28.13;;;20.10;;
36585;SDS011;22591;48.314;11.562;2022-08-30T03:53:42;24.42;;;21.25;;
36585;SDS011;22591;48.314;11.562;2022-08-30T03:56:07;21.63;;;18.50;;
36585;SDS011;22591;48.314;11.562;2022-08-30T03:58:33;27.98;;;21.95;;
36585;SDS011;22591;48.314;11.562;2022-08-30T04:00:59;27.33;;;23.70;;
36585;SDS011;22591;48.314;11.562;2022-08-30T04:03:24;28.02;;;21.83;;
36585;SDS011;22591;48.314;11.562;2022-08-30T04:05:51;24.08;;;19.77;;
36585;SDS011;22591;48.314;11.562;2022-08-30T04:08:17;21.73;;;18.40;;
36585;SDS011;22591;48.314;11.562;2022-08-30T04:10:44;25.40;;;19.88;;
36585;SDS011;22591;48.314;11.562;2022-08-30T04:13:11;30.23;;;24.63;;
36585;SDS011;22591;48.314;11.562;2022-08-30T04:15:40;30.02;;;22.35;;
36585;SDS011;22591;48.314;11.562;2022-08-30T04:18:06;34.30;;;27.25;;
36585;SDS011;22591;48.314;11.562;2022-08-30T04:20:32;33.42;;;26.08;;
36585;SDS011;22591;48.314;11.562;2022-08-30T04:22:58;32.72;;;26.55;;
36585;SDS011;22591;48.314;11.562;2022-08-30T04:25:23;33.67;;;25.35;;
36585;SDS011;22591;48.314;11.562;2022-08-30T04:27:49;40.30;;;29.98;;
36585;SDS011;22591;48.314;11.562;2022-08-30T04:30:17;31.75;;;25.65;;
36585;SDS011;22591;48.314;11.562;2022-08-30T04:32:43;20.10;;;17.95;;
36585;SDS011;22591;48.314;11.562;2022-08-30T04:35:09;28.33;;;21.35;;
36585;SDS011;22591;48.314;11.562;2022-08-30T04:37:37;25.27;;;21.80;;
36585;SDS011;22591;48.314;11.562;2022-08-30T04:40:03;37.00;;;27.02;;
36585;SDS011;22591;48.314;11.562;2022-08-30T04:42:31;37.17;;;28.63;;
36585;SDS011;22591;48.314;11.562;2022-08-30T04:45:00;27.42;;;22.02;;
36585;SDS011;22591;48.314;11.562;2022-08-30T04:47:27;32.75;;;25.10;;
36585;SDS011;22591;48.314;11.562;2022-08-30T04:49:53;28.85;;;24.27;;
36585;SDS011;22591;48.314;11.562;2022-08-30T04:52:19;33.50;;;24.65;;
36585;SDS011;22591;48.314;11.562;2022-08-30T04:54:44;32.55;;;24.60;;
36585;SDS011;22591;48.314;11.562;2022-08-30T04:57:10;31.67;;;22.55;;
36585;SDS011;22591;48.314;11.562;2022-08-30T04:59:36;22.38;;;19.98;;
36585;SDS011;22591;48.314;11.562;2022-08-30T05:02:03;28.08;;;22.83;;
36585;SDS011;22591;48.314;11.562;2022-08-30T05:04:28;22.55;;;18.65;;
36585;SDS011;22591;48.314;11.562;2022-08-30T05:06:54;18.17;;;16.40;;
36585;SDS011;22591;48.314;11.562;2022-08-30T05:09:20;17.90;;;15.63;;
36585;SDS011;22591;48.314;11.562;2022-08-30T05:11:45;18.13;;;16.42;;
36585;SDS011;22591;48.314;11.562;2022-08-30T05:14:11;18.52;;;16.70;;
36585;SDS011;22591;48.314;11.562;2022-08-30T05:16:37;18.30;;;16.48;;
36585;SDS011;22591;48.314;11.562;2022-08-30T05:19:03;20.77;;;16.63;;
36585;SDS011;22591;48.314;11.562;2022-08-30T05:21:29;17.80;;;16.00;;
36585;SDS011;22591;48.314;11.562;2022-08-30T05:23:55;17.58;;;15.93;;
36585;SDS011;22591;48.314;11.562;2022-08-30T05:26:24;20.70;;;16.38;;
36585;SDS011;22591;48.314;11.562;2022-08-30T05:28:52;18.52;;;16.52;;
36585;SDS011;22591;48.314;11.562;2022-08-30T05:31:23;23.08;;;17.67;;
36585;SDS011;22591;48.314;11.562;2022-08-30T05:33:53;20.48;;;16.58;;
36585;SDS011;22591;48.314;11.562;2022-08-30T05:36:21;20.65;;;18.40;;
36585;SDS011;22591;48.314;11.562;2022-08-30T05:38:48;23.80;;;20.48;;
36585;SDS011;22591;48.314;11.562;2022-08-30T05:41:14;20.50;;;18.15;;
36585;SDS011;22591;48.314;11.562;2022-08-30T05:43:42;20.23;;;18.13;;
36585;SDS011;22591;48.314;11.562;2022-08-30T05:46:09;19.13;;;17.23;;
36585;SDS011;22591;48.314;11.562;2022-08-30T05:48:37;24.60;;;18.25;;
36585;SDS011;22591;48.314;11.562;2022-08-30T05:51:04;20.27;;;18.08;;
36585;SDS011;22591;48.314;11.562;2022-08-30T05:53:33;22.35;;;17.25;;
36585;SDS011;22591;48.314;11.562;2022-08-30T05:56:00;20.83;;;18.55;;
36585;SDS011;22591;48.314;11.562;2022-08-30T05:58:27;21.92;;;18.63;;
36585;SDS011;22591;48.314;11.562;2022-08-30T06:00:53;20.90;;;18.67;;
36585;SDS011;22591;48.314;11.562;2022-08-30T06:03:19;23.98;;;18.90;;
36585;SDS011;22591;48.314;11.562;2022-08-30T06:05:44;19.70;;;17.65;;
36585;SDS011;22591;48.314;11.562;2022-08-30T06:08:10;24.05;;;21.48;;
36585;SDS011;22591;48.314;11.562;2022-08-30T06:10:35;21.80;;;19.67;;
36585;SDS011;22591;48.314;11.562;2022-08-30T06:13:01;21.98;;;19.83;;
36585;SDS011;22591;48.314;11.562;2022-08-30T06:15:27;22.20;;;19.13;;
36585;SDS011;22591;48.314;11.562;2022-08-30T06:17:52;18.83;;;17.02;;
36585;SDS011;22591;48.314;11.562;2022-08-30T06:20:18;17.13;;;15.43;;
36585;SDS011;22591;48.314;11.562;2022-08-30T06:22:44;24.63;;;17.33;;
36585;SDS011;22591;48.314;11.562;2022-08-30T06:25:10;16.75;;;15.00;;
36585;SDS011;22591;48.314;11.562;2022-08-30T06:27:36;14.38;;;13.18;;
36585;SDS011;22591;48.314;11.562;2022-08-30T06:30:03;14.90;;;13.60;;
36585;SDS011;22591;48.314;11.562;2022-08-30T06:32:32;17.38;;;15.63;;
36585;SDS011;22591;48.314;11.562;2022-08-30T06:34:58;14.32;;;13.13;;
36585;SDS011;22591;48.314;11.562;2022-08-30T06:37:23;14.50;;;13.25;;
36585;SDS011;22591;48.314;11.562;2022-08-30T06:39:49;14.77;;;13.45;;
36585;SDS011;22591;48.314;11.562;2022-08-30T06:42:15;16.20;;;14.60;;
36585;SDS011;22591;48.314;11.562;2022-08-30T06:44:40;15.85;;;14.25;;
36585;SDS011;22591;48.314;11.562;2022-08-30T06:47:06;15.77;;;14.38;;
36585;SDS011;22591;48.314;11.562;2022-08-30T06:49:32;17.58;;;15.60;;
36585;SDS011;22591;48.314;11.562;2022-08-30T06:51:57;14.73;;;13.48;;
36585;SDS011;22591;48.314;11.562;2022-08-30T06:54:23;16.45;;;14.93;;
36585;SDS011;22591;48.314;11.562;2022-08-30T06:56:48;16.58;;;15.18;;
36585;SDS011;22591;48.314;11.562;2022-08-30T06:59:14;15.50;;;14.30;;
36585;SDS011;22591;48.314;11.562;2022-08-30T07:01:40;16.40;;;14.85;;
36585;SDS011;22591;48.314;11.562;2022-08-30T07:04:06;14.40;;;13.10;;
36585;SDS011;22591;48.314;11.562;2022-08-30T07:06:31;15.95;;;14.50;;
36585;SDS011;22591;48.314;11.562;2022-08-30T07:08:57;15.30;;;13.73;;
36585;SDS011;22591;48.314;11.562;2022-08-30T07:11:30;16.13;;;14.68;;
36585;SDS011;22591;48.314;11.562;2022-08-30T07:13:58;17.02;;;15.40;;
36585;SDS011;22591;48.314;11.562;2022-08-30T07:16:24;17.23;;;14.15;;
36585;SDS011;22591;48.314;11.562;2022-08-30T07:18:50;16.52;;;14.77;;
36585;SDS011;22591;48.314;11.562;2022-08-30T07:21:19;14.80;;;13.50;;
36585;SDS011;22591;48.314;11.562;2022-08-30T07:23:50;15.88;;;13.57;;
36585;SDS011;22591;48.314;11.562;2022-08-30T07:26:19;15.65;;;14.20;;
36585;SDS011;22591;48.314;11.562;2022-08-30T07:28:46;17.65;;;15.82;;
36585;SDS011;22591;48.314;11.562;2022-08-30T07:31:13;15.80;;;14.35;;
36585;SDS011;22591;48.314;11.562;2022-08-30T07:33:39;14.25;;;12.95;;
36585;SDS011;22591;48.314;11.562;2022-08-30T07:36:05;13.35;;;12.25;;
36585;SDS011;22591;48.314;11.562;2022-08-30T07:38:32;12.43;;;11.43;;
36585;SDS011;22591;48.314;11.562;2022-08-30T07:40:58;11.50;;;10.60;;
36585;SDS011;22591;48.314;11.562;2022-08-30T07:43:26;11.88;;;10.70;;
36585;SDS011;22591;48.314;11.562;2022-08-30T07:45:52;14.68;;;11.40;;
36585;SDS011;22591;48.314;11.562;2022-08-30T07:48:18;14.40;;;12.95;;
36585;SDS011;22591;48.314;11.562;2022-08-30T07:50:44;12.45;;;11.35;;
36585;SDS011;22591;48.314;11.562;2022-08-30T07:53:11;11.88;;;10.77;;
36585;SDS011;22591;48.314;11.562;2022-08-30T07:55:37;12.40;;;11.40;;
36585;SDS011;22591;48.314;11.562;2022-08-30T07:58:02;15.23;;;13.73;;
36585;SDS011;22591;48.314;11.562;2022-08-30T08:00:28;16.20;;;13.77;;
36585;SDS011;22591;48.314;11.562;2022-08-30T08:02:54;13.48;;;12.48;;
36585;SDS011;22591;48.314;11.562;2022-08-30T08:05:19;15.27;;;13.82;;
36585;SDS011;22591;48.314;11.562;2022-08-30T08:07:45;12.43;;;11.32;;
36585;SDS011;22591;48.314;11.562;2022-08-30T08:10:11;14.23;;;13.00;;
36585;SDS011;22591;48.314;11.562;2022-08-30T08:12:38;15.95;;;14.30;;
36585;SDS011;22591;48.314;11.562;2022-08-30T08:15:04;13.70;;;12.60;;
36585;SDS011;22591;48.314;11.562;2022-08-30T08:17:30;15.82;;;13.93;;
36585;SDS011;22591;48.314;11.562;2022-08-30T08:19:55;16.23;;;14.65;;
36585;SDS011;22591;48.314;11.562;2022-08-30T08:22:21;15.65;;;14.18;;
36585;SDS011;22591;48.314;11.562;2022-08-30T08:24:47;16.25;;;14.63;;
36585;SDS011;22591;48.314;11.562;2022-08-30T08:27:13;13.38;;;12.05;;
36585;SDS011;22591;48.314;11.562;2022-08-30T08:29:39;16.20;;;14.65;;
36585;SDS011;22591;48.314;11.562;2022-08-30T08:32:04;12.48;;;11.48;;
36585;SDS011;22591;48.314;11.562;2022-08-30T08:34:30;15.80;;;14.18;;
36585;SDS011;22591;48.314;11.562;2022-08-30T08:36:55;14.43;;;12.95;;
36585;SDS011;22591;48.314;11.562;2022-08-30T08:39:21;15.85;;;14.23;;
36585;SDS011;22591;48.314;11.562;2022-08-30T08:44:28;15.50;;;14.10;;
36585;SDS011;22591;48.314;11.562;2022-08-30T08:47:27;13.38;;;12.13;;
36585;SDS011;22591;48.314;11.562;2022-08-30T08:50:20;13.27;;;12.18;;
36585;SDS011;22591;48.314;11.562;2022-08-30T08:52:52;13.48;;;12.00;;
36585;SDS011;22591;48.314;11.562;2022-08-30T08:55:41;13.57;;;11.93;;
36585;SDS011;22591;48.314;11.562;2022-08-30T08:58:14;12.15;;;11.02;;
36585;SDS011;22591;48.314;11.562;2022-08-30T09:00:46;11.38;;;10.38;;
36585;SDS011;22591;48.314;11.562;2022-08-30T09:03:12;13.00;;;11.82;;
36585;SDS011;22591;48.314;11.562;2022-08-30T09:05:40;10.88;;;9.07;;
36585;SDS011;22591;48.314;11.562;2022-08-30T09:08:09;14.70;;;10.90;;
36585;SDS011;22591;48.314;11.562;2022-08-30T09:10:38;11.97;;;10.80;;
36585;SDS011;22591;48.314;11.562;2022-08-30T09:13:07;10.05;;;9.27;;
36585;SDS011;22591;48.314;11.562;2022-08-30T09:15:33;10.05;;;7.80;;
36585;SDS011;22591;48.314;11.562;2022-08-30T09:18:07;7.82;;;7.18;;
36585;SDS011;22591;48.314;11.562;2022-08-30T09:20:34;7.53;;;6.90;;
36585;SDS011;22591;48.314;11.562;2022-08-30T09:23:19;8.45;;;7.65;;
36585;SDS011;22591;48.314;11.562;2022-08-30T09:25:54;8.95;;;7.63;;
36585;SDS011;22591;48.314;11.562;2022-08-30T09:31:05;7.05;;;6.57;;
36585;SDS011;22591;48.314;11.562;2022-08-30T09:34:03;7.38;;;6.55;;
36585;SDS011;22591;48.314;11.562;2022-08-30T09:39:13;7.25;;;6.47;;
36585;SDS011;22591;48.314;11.562;2022-08-30T09:41:43;8.10;;;7.50;;
36585;SDS011;22591;48.314;11.562;2022-08-30T09:44:19;6.82;;;6.20;;
36585;SDS011;22591;48.314;11.562;2022-08-30T09:57:19;6.25;;;5.63;;
36585;SDS011;22591;48.314;11.562;2022-08-30T10:08:17;7.22;;;6.07;;
36585;SDS011;22591;48.314;11.562;2022-08-30T10:10:50;6.45;;;5.95;;
36585;SDS011;22591;48.314;11.562;2022-08-30T10:16:43;5.88;;;5.43;;
36585;SDS011;22591;48.314;11.562;2022-08-30T10:19:46;5.80;;;5.30;;
36585;SDS011;22591;48.314;11.562;2022-08-30T10:22:30;6.10;;;5.72;;
36585;SDS011;22591;48.314;11.562;2022-08-30T10:25:04;5.70;;;5.30;;
36585;SDS011;22591;48.314;11.562;2022-08-30T10:27:44;6.22;;;5.43;;
36585;SDS011;22591;48.314;11.562;2022-08-30T10:30:22;6.15;;;5.57;;
36585;SDS011;22591;48.314;11.562;2022-08-30T10:38:03;5.30;;;5.00;;
36585;SDS011;22591;48.314;11.562;2022-08-30T10:40:37;5.00;;;4.70;;
36585;SDS011;22591;48.314;11.562;2022-08-30T10:46:19;5.20;;;4.47;;
36585;SDS011;22591;48.314;11.562;2022-08-30T10:49:01;4.55;;;4.20;;
36585;SDS011;22591;48.314;11.562;2022-08-30T10:51:31;4.93;;;4.10;;
36585;SDS011;22591;48.314;11.562;2022-08-30T10:54:17;4.60;;;4.28;;
36585;SDS011;22591;48.314;11.562;2022-08-30T10:56:49;5.10;;;4.72;;
36585;SDS011;22591;48.314;11.562;2022-08-30T10:59:16;5.00;;;4.68;;
36585;SDS011;22591;48.314;11.562;2022-08-30T11:13:01;4.82;;;4.43;;
36585;SDS011;22591;48.314;11.562;2022-08-30T11:15:30;4.78;;;4.43;;
36585;SDS011;22591;48.314;11.562;2022-08-30T11:18:01;4.53;;;4.20;;
36585;SDS011;22591;48.314;11.562;2022-08-30T11:20:29;5.43;;;4.95;;
36585;SDS011;22591;48.314;11.562;2022-08-30T11:25:49;5.45;;;4.93;;
36585;SDS011;22591;48.314;11.562;2022-08-30T11:33:51;5.25;;;4.68;;
36585;SDS011;22591;48.314;11.562;2022-08-30T11:41:30;5.32;;;4.82;;
36585;SDS011;22591;48.314;11.562;2022-08-30T11:44:14;5.60;;;4.55;;
36585;SDS011;22591;48.314;11.562;2022-08-30T11:46:53;4.75;;;4.40;;
36585;SDS011;22591;48.314;11.562;2022-08-30T11:54:29;5.07;;;4.57;;
36585;SDS011;22591;48.314;11.562;2022-08-30T12:00:30;6.30;;;4.72;;
36585;SDS011;22591;48.314;11.562;2022-08-30T12:05:45;6.18;;;4.63;;
36585;SDS011;22591;48.314;11.562;2022-08-30T12:18:44;4.30;;;3.90;;
36585;SDS011;22591;48.314;11.562;2022-08-30T12:23:48;3.92;;;3.63;;
36585;SDS011;22591;48.314;11.562;2022-08-30T12:28:44;4.47;;;3.70;;
36585;SDS011;22591;48.314;11.562;2022-08-30T12:31:14;4.25;;;3.95;;
36585;SDS011;22591;48.314;11.562;2022-08-30T12:34:03;5.00;;;4.53;;
36585;SDS011;22591;48.314;11.562;2022-08-30T12:36:30;4.82;;;4.35;;
36585;SDS011;22591;48.314;11.562;2022-08-30T12:39:17;6.63;;;4.32;;
36585;SDS011;22591;48.314;11.562;2022-08-30T12:41:46;5.05;;;3.80;;
36585;SDS011;22591;48.314;11.562;2022-08-30T12:44:13;4.78;;;4.00;;
36585;SDS011;22591;48.314;11.562;2022-08-30T12:46:45;4.28;;;4.07;;
36585;SDS011;22591;48.314;11.562;2022-08-30T12:49:14;4.10;;;3.80;;
36585;SDS011;22591;48.314;11.562;2022-08-30T12:51:42;4.30;;;3.90;;
36585;SDS011;22591;48.314;11.562;2022-08-30T12:54:13;4.15;;;3.95;;
36585;SDS011;22591;48.314;11.562;2022-08-30T12:56:47;4.70;;;4.25;;
36585;SDS011;22591;48.314;11.562;2022-08-30T13:04:49;3.58;;;3.28;;
36585;SDS011;22591;48.314;11.562;2022-08-30T13:07:27;6.03;;;4.43;;
36585;SDS011;22591;48.314;11.562;2022-08-30T13:12:55;4.88;;;4.47;;
36585;SDS011;22591;48.314;11.562;2022-08-30T13:15:28;3.90;;;3.60;;
36585;SDS011;22591;48.314;11.562;2022-08-30T13:20:49;3.90;;;3.42;;
36585;SDS011;22591;48.314;11.562;2022-08-30T13:23:22;3.90;;;3.70;;
36585;SDS011;22591;48.314;11.562;2022-08-30T13:25:48;5.97;;;4.32;;
36585;SDS011;22591;48.314;11.562;2022-08-30T13:28:14;4.40;;;3.85;;
36585;SDS011;22591;48.314;11.562;2022-08-30T13:30:39;4.45;;;3.72;;
36585;SDS011;22591;48.314;11.562;2022-08-30T13:33:05;4.38;;;4.03;;
36585;SDS011;22591;48.314;11.562;2022-08-30T13:35:33;4.55;;;3.75;;
36585;SDS011;22591;48.314;11.562;2022-08-30T13:37:59;5.93;;;4.10;;
36585;SDS011;22591;48.314;11.562;2022-08-30T13:40:26;4.13;;;3.83;;
36585;SDS011;22591;48.314;11.562;2022-08-30T13:42:51;4.20;;;3.83;;
36585;SDS011;22591;48.314;11.562;2022-08-30T13:45:18;3.78;;;3.58;;
36585;SDS011;22591;48.314;11.562;2022-08-30T13:47:44;4.88;;;4.00;;
36585;SDS011;22591;48.314;11.562;2022-08-30T13:50:12;4.80;;;4.00;;
36585;SDS011;22591;48.314;11.562;2022-08-30T13:52:37;4.45;;;3.65;;
36585;SDS011;22591;48.314;11.562;2022-08-30T13:55:03;3.90;;;3.60;;
36585;SDS011;22591;48.314;11.562;2022-08-30T13:57:30;5.60;;;3.58;;
36585;SDS011;22591;48.314;11.562;2022-08-30T13:59:56;7.25;;;4.03;;
36585;SDS011;22591;48.314;11.562;2022-08-30T14:02:24;3.60;;;3.33;;
36585;SDS011;22591;48.314;11.562;2022-08-30T14:04:50;6.30;;;4.00;;
36585;SDS011;22591;48.314;11.562;2022-08-30T14:07:15;3.88;;;3.58;;
36585;SDS011;22591;48.314;11.562;2022-08-30T14:09:41;4.20;;;3.90;;
36585;SDS011;22591;48.314;11.562;2022-08-30T14:12:07;5.22;;;4.00;;
36585;SDS011;22591;48.314;11.562;2022-08-30T14:14:32;4.18;;;3.88;;
36585;SDS011;22591;48.314;11.562;2022-08-30T14:16:58;4.93;;;4.53;;
36585;SDS011;22591;48.314;11.562;2022-08-30T14:19:24;4.38;;;4.07;;
36585;SDS011;22591;48.314;11.562;2022-08-30T14:21:49;4.05;;;3.65;;
36585;SDS011;22591;48.314;11.562;2022-08-30T14:24:15;4.60;;;3.92;;
36585;SDS011;22591;48.314;11.562;2022-08-30T14:26:42;4.65;;;4.15;;
36585;SDS011;22591;48.314;11.562;2022-08-30T14:29:12;4.78;;;3.65;;
36585;SDS011;22591;48.314;11.562;2022-08-30T14:31:40;4.47;;;4.18;;
36585;SDS011;22591;48.314;11.562;2022-08-30T14:34:06;3.92;;;3.55;;
36585;SDS011;22591;48.314;11.562;2022-08-30T14:36:34;4.68;;;3.72;;
36585;SDS011;22591;48.314;11.562;2022-08-30T14:39:01;4.30;;;4.00;;
36585;SDS011;22591;48.314;11.562;2022-08-30T14:41:28;5.57;;;3.75;;
36585;SDS011;22591;48.314;11.562;2022-08-30T14:43:54;3.78;;;3.47;;
36585;SDS011;22591;48.314;11.562;2022-08-30T14:46:19;4.25;;;4.00;;
36585;SDS011;22591;48.314;11.562;2022-08-30T14:48:48;5.35;;;3.70;;
36585;SDS011;22591;48.314;11.562;2022-08-30T14:51:14;4.45;;;3.83;;
36585;SDS011;22591;48.314;11.562;2022-08-30T14:53:42;3.67;;;3.40;;
36585;SDS011;22591;48.314;11.562;2022-08-30T14:56:09;5.63;;;3.55;;
36585;SDS011;22591;48.314;11.562;2022-08-30T14:58:36;3.42;;;3.22;;
36585;SDS011;22591;48.314;11.562;2022-08-30T15:01:04;3.63;;;3.33;;
36585;SDS011;22591;48.314;11.562;2022-08-30T15:03:32;4.38;;;4.07;;
36585;SDS011;22591;48.314;11.562;2022-08-30T15:05:58;4.72;;;3.53;;
36585;SDS011;22591;48.314;11.562;2022-08-30T15:08:23;4.15;;;3.85;;
36585;SDS011;22591;48.314;11.562;2022-08-30T15:10:49;4.18;;;3.88;;
36585;SDS011;22591;48.314;11.562;2022-08-30T15:13:15;3.47;;;3.20;;
36585;SDS011;22591;48.314;11.562;2022-08-30T15:15:41;5.55;;;3.35;;
36585;SDS011;22591;48.314;11.562;2022-08-30T15:18:07;4.45;;;3.35;;
36585;SDS011;22591;48.314;11.562;2022-08-30T15:20:33;3.83;;;3.60;;
36585;SDS011;22591;48.314;11.562;2022-08-30T15:22:58;3.50;;;3.20;;
36585;SDS011;22591;48.314;11.562;2022-08-30T15:25:24;3.22;;;3.03;;
36585;SDS011;22591;48.314;11.562;2022-08-30T15:27:49;3.10;;;2.90;;
36585;SDS011;22591;48.314;11.562;2022-08-30T15:30:15;3.38;;;3.17;;
36585;SDS011;22591;48.314;11.562;2022-08-30T15:32:41;3.60;;;3.40;;
36585;SDS011;22591;48.314;11.562;2022-08-30T15:35:06;3.30;;;3.00;;
36585;SDS011;22591;48.314;11.562;2022-08-30T15:37:32;3.22;;;3.03;;
36585;SDS011;22591;48.314;11.562;2022-08-30T15:39:58;4.20;;;3.40;;
36585;SDS011;22591;48.314;11.562;2022-08-30T15:42:24;3.78;;;3.38;;
36585;SDS011;22591;48.314;11.562;2022-08-30T15:44:53;3.53;;;3.25;;
36585;SDS011;22591;48.314;11.562;2022-08-30T15:47:19;3.78;;;3.50;;
36585;SDS011;22591;48.314;11.562;2022-08-30T15:49:56;4.72;;;3.22;;
36585;SDS011;22591;48.314;11.562;2022-08-30T15:52:24;5.00;;;3.70;;
36585;SDS011;22591;48.314;11.562;2022-08-30T15:54:50;4.10;;;3.78;;
36585;SDS011;22591;48.314;11.562;2022-08-30T15:57:16;7.35;;;4.07;;
36585;SDS011;22591;48.314;11.562;2022-08-30T15:59:41;4.32;;;3.60;;
36585;SDS011;22591;48.314;11.562;2022-08-30T16:02:07;3.75;;;3.45;;
36585;SDS011;22591;48.314;11.562;2022-08-30T16:04:33;4.75;;;3.70;;
36585;SDS011;22591;48.314;11.562;2022-08-30T16:06:58;6.22;;;4.10;;